South Haven, Kansas
Current Conditions -  °F | °C
As of 11:54 PM on Wednesday 28 Jan 2015 (Local Time) from KWLD Reporting Station
Clear Clear  
Wind Chill: 53°   Ceiling: Unl
Heat Index: 53°   Visibility: 10mi
Dew Point: 32°   Wind: 14mph
Humidity: 45%   Direction: 330°NNW
Pressure: 30.02"   Gusts: NA
Location:  37.05°N, 97.41°W
Report Text: KWLD 290554Z AUTO 33012KT 10SM CLR 12/00 A3002 RMK AO2 SLP159 T01170000 10161 20111 402500078 53030
Loading
Personal Weather Stations






























Interactive Weather Map New forecast layout! Learn more

10-Day Weather Forecast

Advertisements
Track Severe Weather on mobile